Terminal Aerodrome Forecast
Issued by NWS Jackson, MS

Home | Current Version | Previous Version | Text Only | Print | Product List | Glossary On
Versions: 1 2 3 4 5 6 7 8 9 10 11 12 13 14
950
FTUS44 KJAN 211744
TAFMEI
TAF
KMEI 211744Z 2118/2218 21005KT 6SM -RA BR BKN005 OVC015
     FM212000 VRB04KT P6SM VCSH BKN015 OVC050
     FM220200 VRB03KT 5SM BR VCSH BKN010 BKN250
     FM220600 00000KT 1SM BR OVC003=

USA.gov is the U.S. government's official web portal to all federal, state and local government web resources and services.